M I D A S
Marine Information and Data Acquisition System
Tripno 1992 of the Zeeleeuw from 2010-12-13 08:06:46 to 2010-12-13 18:18:51
Back to CruiseResearch ActivitiesStationsMapUnderway DataData graphs

EquipmentUnitsComment
TimeDGPSUTC
LatitudeDGPSDM.mWGS84
LongitudeDGPSDM.mWGS84
HeadingGyrodeg 
SOGDGPSknotsSpeed over ground
COGDGPSdegCourse over ground
DepthEcho soundermeters200 kHz
Missing or incorrect values are displayed as -999
Navigation data collected by the RV Zeeleeuw from 2010-12-13 07:54:21 to 2010-12-13 18:30:19
Time Latitude Longitude Heading SOG COG Depth
2010-12-13 07:55:29 51°13.669 2°55.918 107.9 3.5 290 -999
2010-12-13 07:56:30 51°13.689 2°55.816 100.2 3.7 284 -999
2010-12-13 07:57:30 51°13.696 2°55.74 83.6 0.9 280 13.9
2010-12-13 07:58:28 51°13.707 2°55.745 34.8 0.6 17 14
2010-12-13 07:59:30 51°13.697 2°55.733 9 1 359 -999
2010-12-13 08:00:29 51°13.777 2°55.689 337.2 7.8 336 10.8
2010-12-13 08:01:28 51°13.91 2°55.578 332.4 10 334 11.8
2010-12-13 08:02:29 51°14.067 2°55.461 334.4 10.4 335 11.4
2010-12-13 08:03:30 51°14.225 2°55.343 335.2 10.3 335 -999
2010-12-13 08:04:29 51°14.375 2°55.207 327.6 10.7 329 -999
2010-12-13 08:05:29 51°14.522 2°55.048 324 10.7 324 12
2010-12-13 08:06:28 51°14.664 2°54.885 336.2 10.3 343 12.4
2010-12-13 08:07:27 51°14.819 2°54.858 358.8 9.5 359 10.7
2010-12-13 08:08:26 51°14.965 2°54.856 359.5 7.8 359 9.9
2010-12-13 08:09:26 51°15.067 2°54.796 321.7 5.8 323 9.8
2010-12-13 08:10:26 51°15.137 2°54.699 314.3 5.5 318 9.4
2010-12-13 08:11:26 51°15.182 2°54.583 281.7 5.1 287 9.5
2010-12-13 08:12:26 51°15.194 2°54.429 268.9 6.7 273 9.7
2010-12-13 08:13:26 51°15.165 2°54.253 235.2 7.2 234 12
2010-12-13 08:14:26 51°15.084 2°54.101 224.2 7.7 229 9.9
2010-12-13 08:15:26 51°14.975 2°54.022 184.9 7.4 190 10.5
2010-12-13 08:16:26 51°14.854 2°54.02 175.2 7.1 172 10.4
2010-12-13 08:17:26 51°14.755 2°54.108 138 6.8 135 10.7
2010-12-13 08:18:26 51°14.696 2°54.247 101.7 6.3 105 11
2010-12-13 08:19:26 51°14.697 2°54.418 83.2 6.5 77 10.9
2010-12-13 08:20:26 51°14.757 2°54.558 47.5 6.6 44 12.2
2010-12-13 08:21:26 51°14.841 2°54.676 38.1 6.7 32 12.7
2010-12-13 08:22:27 51°14.942 2°54.722 5.2 5.9 1 10.6
2010-12-13 08:23:26 51°15.031 2°54.683 337.1 5.8 338 9.8
2010-12-13 08:24:26 51°15.123 2°54.638 348.5 5.8 349 8.8
2010-12-13 08:25:26 51°15.22 2°54.613 349.7 6 350 9.5
2010-12-13 08:26:26 51°15.318 2°54.581 345.8 6 348 10
2010-12-13 08:27:26 51°15.413 2°54.542 343.7 5.9 343 10.1
2010-12-13 08:28:27 51°15.533 2°54.496 351.2 8.7 350 10.3
2010-12-13 08:29:26 51°15.678 2°54.429 336.9 9.7 334 11
2010-12-13 08:30:26 51°15.825 2°54.308 337.5 10 340 11.1
2010-12-13 08:31:26 51°15.99 2°54.275 0.7 10.1 359 11.4
2010-12-13 08:32:26 51°16.159 2°54.248 352.5 9.8 354 11.8
2010-12-13 08:33:26 51°16.269 2°54.267 30.5 4.7 32 11.6
2010-12-13 08:34:26 51°16.303 2°54.337 69.9 2.4 66 12
2010-12-13 08:35:26 51°16.314 2°54.364 60.3 0.6 54 11.7
2010-12-13 08:36:26 51°16.319 2°54.368 56.8 0.3 314 11.7
2010-12-13 08:37:26 51°16.32 2°54.359 51.4 0.5 278 11.7
2010-12-13 08:38:26 51°16.321 2°54.345 45.9 0.7 277 11.8
2010-12-13 08:39:26 51°16.318 2°54.33 39.6 0.6 242 11.8
2010-12-13 08:40:26 51°16.314 2°54.314 34.3 0.7 201 11.9
2010-12-13 08:41:26 51°16.307 2°54.297 30.5 0.8 232 11.6
2010-12-13 08:42:26 51°16.298 2°54.279 31.3 0.9 232 11.8
2010-12-13 08:43:26 51°16.287 2°54.26 33.2 0.9 222 11.8
2010-12-13 08:44:26 51°16.277 2°54.239 33.5 1 210 12
2010-12-13 08:45:26 51°16.266 2°54.217 35.1 1.1 244 11.6
2010-12-13 08:46:27 51°16.255 2°54.194 34.2 1.3 250 11.4
2010-12-13 08:47:26 51°16.243 2°54.172 32.9 1.1 226 11.8
2010-12-13 08:48:26 51°16.231 2°54.15 30.3 1.1 232 11.5
2010-12-13 08:49:26 51°16.22 2°54.13 26.8 1 227 11.6
2010-12-13 08:50:26 51°16.209 2°54.114 28.5 1 241 11.4
2010-12-13 08:51:26 51°16.199 2°54.097 30.3 0.8 223 11.8
2010-12-13 08:52:26 51°16.19 2°54.079 29.6 0.8 219 11.5
2010-12-13 08:53:26 51°16.181 2°54.06 29.4 0.8 225 11.6
2010-12-13 08:54:26 51°16.175 2°54.044 27.8 0.6 334 11.5
2010-12-13 08:55:26 51°16.206 2°54.079 49.7 3.9 47 11.6
2010-12-13 08:56:26 51°16.257 2°54.203 63.8 6.9 68 11.6
2010-12-13 08:57:26 51°16.267 2°54.34 98.8 3.3 101 11.3
2010-12-13 08:58:26 51°16.254 2°54.385 120.5 1 136 11.2
2010-12-13 08:59:26 51°16.243 2°54.394 144.4 0.8 180 11.4
2010-12-13 09:00:26 51°16.23 2°54.392 158.2 0.8 195 11.6
2010-12-13 09:01:26 51°16.218 2°54.385 164.3 0.9 215 11.3
2010-12-13 09:02:26 51°16.206 2°54.375 165.8 0.7 207 11.5
2010-12-13 09:03:26 51°16.197 2°54.366 164.8 0.6 208 11.4
2010-12-13 09:04:26 51°16.188 2°54.355 165.6 0.6 217 11.3
2010-12-13 09:05:26 51°16.181 2°54.343 167.8 0.6 226 11.4
2010-12-13 09:06:26 51°16.173 2°54.33 169.2 0.9 234 11.2
2010-12-13 09:07:26 51°16.166 2°54.316 171 0.7 225 11.2
2010-12-13 09:08:26 51°16.158 2°54.302 171.2 0.7 228 11.2
2010-12-13 09:09:26 51°16.15 2°54.287 170.5 0.8 214 11.2
2010-12-13 09:10:26 51°16.125 2°54.316 109.1 3 107 11
2010-12-13 09:11:26 51°16.158 2°54.385 22.1 4.2 9 11.1
2010-12-13 09:12:26 51°16.228 2°54.299 308.6 8.3 310 10.9
2010-12-13 09:13:26 51°16.364 2°54.09 317.8 13 316 11.2
2010-12-13 09:14:26 51°16.52 2°53.837 314.2 13.5 312 11.9
2010-12-13 09:15:26 51°16.662 2°53.561 310 13.5 309 11.4
2010-12-13 09:16:26 51°16.803 2°53.283 310 13.4 309 11.7
2010-12-13 09:17:26 51°16.942 2°53.014 310.4 13.1 311 8.7
2010-12-13 09:18:27 51°17.088 2°52.735 310.2 13.6 309 10.1
2010-12-13 09:19:26 51°17.229 2°52.463 310.7 13.6 310 10.2
2010-12-13 09:20:26 51°17.373 2°52.185 310.2 13.6 309 11.3
2010-12-13 09:21:26 51°17.516 2°51.91 310.1 13.4 309 10.3
2010-12-13 09:22:26 51°17.663 2°51.647 318.6 12.9 323 9.7
2010-12-13 09:23:26 51°17.857 2°51.491 339.1 13.1 338 10.7
2010-12-13 09:24:26 51°18.061 2°51.357 340.2 13.4 338 11.2
2010-12-13 09:25:26 51°18.268 2°51.225 340.2 13.3 338 12.4
2010-12-13 09:26:26 51°18.446 2°51.111 338.7 9.7 337 13.7
2010-12-13 09:27:26 51°18.572 2°51.051 1.7 5.6 3 14.3
2010-12-13 09:28:26 51°18.617 2°51.077 51.3 1.1 39 14.3
2010-12-13 09:29:26 51°18.621 2°51.076 76.3 0.3 310 14.4
2010-12-13 09:30:26 51°18.621 2°51.069 85.1 0.4 233 14.6
2010-12-13 09:31:26 51°18.618 2°51.059 96.6 0.7 223 14.4
2010-12-13 09:32:26 51°18.616 2°51.048 106.4 0.4 272 14
2010-12-13 09:33:26 51°18.613 2°51.036 116.3 0.5 254 14.2
2010-12-13 09:34:26 51°18.61 2°51.023 124 0.5 249 14.2
2010-12-13 09:35:26 51°18.606 2°51.011 126.1 0.5 230 14.3
2010-12-13 09:36:26 51°18.603 2°51 128.6 0.5 242 14.5
2010-12-13 09:37:26 51°18.598 2°50.989 132.9 0.3 227 13.8
2010-12-13 09:38:26 51°18.593 2°50.977 135.8 0.4 230 14.1
2010-12-13 09:39:26 51°18.587 2°50.965 140 0.6 223 14.1
2010-12-13 09:40:26 51°18.58 2°50.952 142.7 0.6 233 14.3
2010-12-13 09:41:26 51°18.574 2°50.939 145 0.5 239 14.2
2010-12-13 09:42:26 51°18.568 2°50.926 146.6 0.5 235 14.2
2010-12-13 09:43:26 51°18.562 2°50.913 145.2 0.7 236 14.5
2010-12-13 09:44:26 51°18.555 2°50.9 141.6 0.5 232 13.8
2010-12-13 09:45:26 51°18.549 2°50.889 134.4 0.5 208 14.2
2010-12-13 09:46:26 51°18.545 2°50.956 73.5 5.6 78 13.8
2010-12-13 09:47:26 51°18.572 2°51.193 78.7 11.1 78 14
2010-12-13 09:48:26 51°18.627 2°51.504 72.3 12.6 76 13.6
2010-12-13 09:49:27 51°18.687 2°51.83 73.1 12.5 71 12.7
2010-12-13 09:50:26 51°18.743 2°52.143 73.3 12.6 73 13.1
2010-12-13 09:51:27 51°18.802 2°52.469 73.8 12.6 72 12.1
2010-12-13 09:52:26 51°18.86 2°52.784 73.5 12.6 74 12
2010-12-13 09:53:27 51°18.918 2°53.11 73.4 12.5 77 11.7
2010-12-13 09:54:26 51°18.976 2°53.421 73.7 12.4 73 11.5
2010-12-13 09:55:26 51°19.032 2°53.738 73.1 12.5 73 11.8
2010-12-13 09:56:26 51°19.088 2°54.054 72.7 12.4 75 11.9
2010-12-13 09:57:26 51°19.143 2°54.372 73.6 12.4 75 11.5
2010-12-13 09:58:26 51°19.199 2°54.691 73 12.4 76 11.1
2010-12-13 09:59:26 51°19.256 2°55.008 73.1 12.3 74 11
2010-12-13 10:00:26 51°19.311 2°55.326 73.3 12.4 75 11.2
2010-12-13 10:01:26 51°19.369 2°55.643 71.3 12.3 72 10.9
2010-12-13 10:02:26 51°19.432 2°55.956 71.3 12.3 72 10.7
2010-12-13 10:03:26 51°19.494 2°56.268 71.2 12.4 73 10.9
2010-12-13 10:04:26 51°19.557 2°56.577 71.3 12.2 70 10.9
2010-12-13 10:05:26 51°19.621 2°56.885 72.1 12.3 73 10.7
2010-12-13 10:06:26 51°19.684 2°57.195 71.2 12.2 70 10.5
2010-12-13 10:07:26 51°19.745 2°57.507 71.5 12.3 74 10.4
2010-12-13 10:08:26 51°19.81 2°57.818 70.4 12.3 73 10.3
2010-12-13 10:09:26 51°19.874 2°58.127 73.1 12.2 67 10.1
2010-12-13 10:10:26 51°19.937 2°58.436 72.4 12.2 73 10.4
2010-12-13 10:11:26 51°20.003 2°58.743 70.3 12.2 68 10.2
2010-12-13 10:12:26 51°20.073 2°59.047 69.2 12.3 71 10
2010-12-13 10:13:26 51°20.144 2°59.35 68.9 12.1 71 9.7
2010-12-13 10:14:26 51°20.214 2°59.654 69.5 12.2 68 9.6
2010-12-13 10:15:26 51°20.285 2°59.957 69 12.1 70 9.3
2010-12-13 10:16:26 51°20.356 3°0.258 68.5 12.1 70 9.3
2010-12-13 10:17:26 51°20.427 3°0.562 70.3 12.2 70 9.8
2010-12-13 10:18:26 51°20.497 3°0.864 68.7 12.1 70 9.2
2010-12-13 10:19:26 51°20.557 3°1.17 76.3 12.1 76 9.5
2010-12-13 10:20:26 51°20.6 3°1.485 76.5 12.1 78 9.4
2010-12-13 10:21:26 51°20.643 3°1.799 76.8 12 77 8.9
2010-12-13 10:22:26 51°20.685 3°2.113 75.9 12.1 81 9.1
2010-12-13 10:23:26 51°20.722 3°2.391 77 8.4 78 9.2
2010-12-13 10:24:26 51°20.749 3°2.531 59.8 3 57 9.6
2010-12-13 10:25:27 51°20.762 3°2.535 27.4 0.7 279 9.6
2010-12-13 10:26:26 51°20.763 3°2.515 16.8 0.8 267 9.6
2010-12-13 10:27:26 51°20.762 3°2.493 11.7 0.9 267 9.5
2010-12-13 10:28:26 51°20.762 3°2.47 8.2 1 268 9.5
2010-12-13 10:29:26 51°20.76 3°2.446 5.9 0.8 262 9.7
2010-12-13 10:30:26 51°20.759 3°2.422 4.1 0.9 263 9.5
2010-12-13 10:31:27 51°20.757 3°2.397 3.7 0.9 263 9.4
2010-12-13 10:32:26 51°20.755 3°2.373 5.2 1 260 9.6
2010-12-13 10:33:26 51°20.752 3°2.348 9.5 1.2 265 9.6
2010-12-13 10:34:26 51°20.749 3°2.324 11.7 1 260 9.7
2010-12-13 10:35:26 51°20.745 3°2.3 15.2 0.8 248 9.5
2010-12-13 10:36:26 51°20.742 3°2.274 20.2 1 258 9.4
2010-12-13 10:37:26 51°20.737 3°2.249 25.1 0.9 253 9.6
2010-12-13 10:38:27 51°20.752 3°2.243 34.4 2.9 27 9.4
2010-12-13 10:39:26 51°20.78 3°2.37 79.9 7.6 83 9.5
2010-12-13 10:40:26 51°20.788 3°2.594 78.6 9.4 78 9.4
2010-12-13 10:41:26 51°20.838 3°2.863 72.5 11 74 9.1
2010-12-13 10:42:26 51°20.888 3°3.145 73.6 11 74 8.8
2010-12-13 10:43:27 51°20.951 3°3.426 69.5 11.1 68 9.3
2010-12-13 10:44:26 51°21.023 3°3.693 64.2 11.1 61 9.3
2010-12-13 10:45:26 51°21.105 3°3.958 64.9 11.1 63 9.7
2010-12-13 10:46:26 51°21.186 3°4.224 64.6 11 63 9.6
2010-12-13 10:47:26 51°21.264 3°4.49 64.7 11 65 9.8
2010-12-13 10:48:26 51°21.343 3°4.755 65 11 66 9.7
2010-12-13 10:49:26 51°21.422 3°5.017 64.7 10.8 65 9.8
2010-12-13 10:50:26 51°21.501 3°5.274 64.6 10.8 64 9.9
2010-12-13 10:51:26 51°21.579 3°5.533 64.7 10.9 63 10.2
2010-12-13 10:52:26 51°21.661 3°5.8 64.9 11.4 65 9.9
2010-12-13 10:53:26 51°21.742 3°6.077 65.4 11.6 61 10.3
2010-12-13 10:54:26 51°21.823 3°6.354 66 11.5 64 10.7
2010-12-13 10:55:26 51°21.905 3°6.632 65.3 11.6 64 11
2010-12-13 10:56:26 51°21.986 3°6.908 65.5 11.5 65 11.3
2010-12-13 10:57:26 51°22.067 3°7.187 65.3 11.6 68 11.7
2010-12-13 10:58:27 51°22.15 3°7.47 65.1 11.6 66 11.6
2010-12-13 10:59:27 51°22.23 3°7.752 65.1 11.6 69 11.9
2010-12-13 11:00:26 51°22.244 3°8.053 88 11.6 89 11.5
2010-12-13 11:01:27 51°22.234 3°8.37 89.5 11.8 89 11.7
2010-12-13 11:02:26 51°22.227 3°8.676 86.9 11.7 96 11.6
2010-12-13 11:03:26 51°22.219 3°8.984 89.8 11.6 85 11.9
2010-12-13 11:04:26 51°22.205 3°9.291 91.2 11.7 99 12.2
2010-12-13 11:05:26 51°22.187 3°9.6 90.8 11.6 92 12.4
2010-12-13 11:06:26 51°22.171 3°9.906 89.7 11.6 94 13.1
2010-12-13 11:07:26 51°22.155 3°10.216 91.5 11.8 95 13.6
2010-12-13 11:08:26 51°22.162 3°10.527 77.2 11.9 76 14.8
2010-12-13 11:09:26 51°22.215 3°10.832 74 11.9 73 16.8
2010-12-13 11:10:27 51°22.273 3°11.137 74.1 11.7 71 15.9
2010-12-13 11:11:26 51°22.327 3°11.43 74.7 11.8 75 15.7
2010-12-13 11:12:26 51°22.38 3°11.729 75 11.6 76 14.9
2010-12-13 11:13:26 51°22.433 3°12.027 73.9 11.7 69 14.8
2010-12-13 11:14:26 51°22.486 3°12.321 75.7 11.6 76 13.5
2010-12-13 11:15:26 51°22.535 3°12.62 75.6 12 74 12.8
2010-12-13 11:16:26 51°22.584 3°12.92 75.8 11.7 77 11.5
2010-12-13 11:17:26 51°22.622 3°13.15 76.3 6.1 72 11.1
2010-12-13 11:18:26 51°22.644 3°13.251 69.6 2.2 49 11
2010-12-13 11:19:26 51°22.652 3°13.24 24.2 1.2 276 11
2010-12-13 11:20:26 51°22.653 3°13.21 14.9 1.1 273 11
2010-12-13 11:21:26 51°22.653 3°13.179 11.3 1.2 273 11.1
2010-12-13 11:22:26 51°22.653 3°13.148 9.4 1.3 272 11.1
2010-12-13 11:23:26 51°22.654 3°13.115 8.1 1.2 272 11.3
2010-12-13 11:24:26 51°22.655 3°13.083 10.5 1.3 272 11.3
2010-12-13 11:25:26 51°22.656 3°13.05 12.1 1.4 275 11.4
2010-12-13 11:26:26 51°22.657 3°13.017 13.8 1.4 272 11.4
2010-12-13 11:27:26 51°22.658 3°12.986 17.5 1.2 274 11.6
2010-12-13 11:28:27 51°22.659 3°12.953 19.7 1.2 274 11.6
2010-12-13 11:29:26 51°22.691 3°12.979 61.7 4.7 66 11.5
2010-12-13 11:30:26 51°22.677 3°13.143 101.4 7.4 106 11
2010-12-13 11:31:26 51°22.649 3°13.336 106.8 6.1 115 10.8
2010-12-13 11:32:26 51°22.616 3°13.392 113.1 0.5 202 10.7
2010-12-13 11:33:26 51°22.613 3°13.376 88.2 0.7 259 10.8
2010-12-13 11:34:26 51°22.613 3°13.357 73.8 0.8 273 10.7
2010-12-13 11:35:26 51°22.613 3°13.335 66.8 0.9 278 11
2010-12-13 11:36:26 51°22.617 3°13.319 56.7 0.9 353 10.7
2010-12-13 11:37:26 51°22.654 3°13.3 349 3.8 324 10.4
2010-12-13 11:38:26 51°22.698 3°13.17 293.3 7.9 291 10.8
2010-12-13 11:39:26 51°22.767 3°12.916 297 11.8 295 11.1
2010-12-13 11:40:26 51°22.86 3°12.605 297.6 13.7 296 11.3
2010-12-13 11:41:26 51°22.958 3°12.27 297.7 14 294 11.5
2010-12-13 11:42:26 51°23.06 3°11.937 300.6 14 298 11.5
2010-12-13 11:43:26 51°23.172 3°11.614 303.8 13.7 300 11.5
2010-12-13 11:44:26 51°23.293 3°11.306 305.1 13.6 302 11.8
2010-12-13 11:45:26 51°23.415 3°10.999 305.5 13.7 302 11.6
2010-12-13 11:46:26 51°23.537 3°10.687 305.1 13.7 302 12.1
2010-12-13 11:47:26 51°23.655 3°10.374 305.3 13.8 302 13
2010-12-13 11:48:26 51°23.776 3°10.056 305.7 14.2 301 13.9
2010-12-13 11:49:26 51°23.897 3°9.733 305.5 14.1 301 15.4
2010-12-13 11:50:26 51°24.019 3°9.411 305.2 14.2 301 17.9
2010-12-13 11:51:26 51°24.141 3°9.094 306.9 14 302 17.8
2010-12-13 11:52:26 51°24.27 3°8.78 307.4 14.1 303 14.8
2010-12-13 11:53:26 51°24.4 3°8.471 310.2 13.8 306 11.5
2010-12-13 11:54:26 51°24.537 3°8.187 313.4 13.4 309 10.1
2010-12-13 11:55:26 51°24.681 3°7.918 313.9 13.3 310 9.5
2010-12-13 11:56:26 51°24.83 3°7.66 318.9 13.1 316 9.2
2010-12-13 11:57:26 51°24.985 3°7.419 319.4 12.8 317 8.6
2010-12-13 11:58:26 51°25.133 3°7.174 317.2 12.8 314 8.1
2010-12-13 11:59:26 51°25.288 3°6.934 318.5 13.2 314 9.1
2010-12-13 12:00:26 51°25.47 3°6.774 350.9 12.7 347 9.4
2010-12-13 12:01:26 51°25.677 3°6.733 357.1 12.4 356 9.5
2010-12-13 12:02:26 51°25.876 3°6.798 22.7 12.3 22 9.6
2010-12-13 12:03:26 51°26.029 3°7.01 47.5 12.4 49 9.6
2010-12-13 12:04:26 51°26.157 3°7.262 51.3 12.2 56 8.5
2010-12-13 12:05:26 51°26.239 3°7.552 67.5 11.9 65 -999
2010-12-13 12:06:27 51°26.31 3°7.864 67.6 12.5 69 8.6
2010-12-13 12:07:26 51°26.386 3°8.164 65.9 11.8 66 8.8
2010-12-13 12:08:26 51°26.428 3°8.37 77.3 5.3 82 9.3
2010-12-13 12:09:26 51°26.421 3°8.47 94.4 2.4 110 10.2
2010-12-13 12:10:26 51°26.401 3°8.499 127.5 1.1 154 9.7
2010-12-13 12:11:26 51°26.387 3°8.498 143.8 0.8 196 9.6
2010-12-13 12:12:26 51°26.376 3°8.494 145.6 0.7 199 9.4
2010-12-13 12:13:26 51°26.364 3°8.489 145 0.7 198 9.8
2010-12-13 12:14:26 51°26.353 3°8.486 145.2 0.6 195 9.6
2010-12-13 12:15:26 51°26.342 3°8.482 145.2 0.7 197 9.6
2010-12-13 12:16:26 51°26.33 3°8.478 145.8 0.8 184 9.3
2010-12-13 12:17:26 51°26.318 3°8.474 146.5 0.7 193 9.5
2010-12-13 12:18:26 51°26.307 3°8.469 147.6 0.7 184 9.7
2010-12-13 12:19:26 51°26.296 3°8.464 146.7 0.8 205 9.2
2010-12-13 12:20:26 51°26.285 3°8.46 145.2 0.6 197 9.7
2010-12-13 12:21:26 51°26.275 3°8.456 140 0.6 179 9.4
2010-12-13 12:22:26 51°26.265 3°8.452 133.3 0.7 193 9.6
2010-12-13 12:23:26 51°26.253 3°8.455 119.8 1.2 157 9.3
2010-12-13 12:24:26 51°26.237 3°8.468 109.5 1.2 161 9.2
2010-12-13 12:25:26 51°26.221 3°8.481 104.1 1.2 147 9.2
2010-12-13 12:26:26 51°26.215 3°8.516 61.3 1 73 9.4
2010-12-13 12:27:26 51°26.219 3°8.533 40.2 0.5 55 9.4
2010-12-13 12:28:26 51°26.226 3°8.544 33.5 0.6 31 9.2
2010-12-13 12:29:26 51°26.235 3°8.556 32.6 0.9 44 9.6
2010-12-13 12:30:26 51°26.263 3°8.586 30.6 4.9 29 9.7
2010-12-13 12:31:26 51°26.376 3°8.548 329.6 8.8 319 10.1
2010-12-13 12:32:26 51°26.494 3°8.395 335.1 7.4 333 8.9
2010-12-13 12:33:26 51°26.552 3°8.373 11 1.3 359 9.3
2010-12-13 12:34:26 51°26.558 3°8.377 37 0.3 80 9.2
2010-12-13 12:35:26 51°26.557 3°8.383 40 0.1 296 9.1
2010-12-13 12:36:26 51°26.553 3°8.387 40.9 0.2 168 9.4
2010-12-13 12:37:26 51°26.548 3°8.391 40.7 0.5 140 9.6
2010-12-13 12:38:26 51°26.582 3°8.424 19.1 4.5 16 8.8
2010-12-13 12:39:26 51°26.691 3°8.393 339 8.5 329 9.6
2010-12-13 12:40:26 51°26.793 3°8.141 299.5 12.9 295 11.3
2010-12-13 12:41:26 51°26.881 3°7.826 297.4 12.9 295 10.2
2010-12-13 12:42:26 51°26.972 3°7.513 298.2 13 295 11
2010-12-13 12:43:26 51°27.064 3°7.203 297.9 12.9 295 11.4
2010-12-13 12:44:26 51°27.156 3°6.894 298.2 12.8 296 12
2010-12-13 12:45:26 51°27.248 3°6.585 298.1 12.9 295 13.1
2010-12-13 12:46:27 51°27.339 3°6.269 297.9 12.9 296 13.2
2010-12-13 12:47:26 51°27.429 3°5.963 298.3 12.9 296 13.6
2010-12-13 12:48:26 51°27.52 3°5.65 298.2 13 295 14
2010-12-13 12:49:26 51°27.612 3°5.339 299.4 12.9 298 14.9
2010-12-13 12:50:26 51°27.72 3°5.042 305.9 12.9 303 13.5
2010-12-13 12:51:26 51°27.835 3°4.753 305.6 12.9 302 13.5
2010-12-13 12:52:26 51°27.95 3°4.461 306 13 302 15.9
2010-12-13 12:53:26 51°28.065 3°4.165 305.4 13.1 303 18
2010-12-13 12:54:26 51°28.181 3°3.87 305.3 13 301 19.7
2010-12-13 12:55:26 51°28.259 3°3.651 303.6 7.1 298 21.1
2010-12-13 12:56:26 51°28.307 3°3.504 305.1 5.5 297 22.2
2010-12-13 12:57:26 51°28.321 3°3.414 276.8 1.9 262 22.2
2010-12-13 12:58:26 51°28.314 3°3.397 261.4 0.7 215 22.4
2010-12-13 12:59:26 51°28.307 3°3.384 272.3 0.5 233 4.9
2010-12-13 13:00:26 51°28.3 3°3.373 287 0.7 224 22.4
2010-12-13 13:01:26 51°28.294 3°3.362 297 0.6 221 22.5
2010-12-13 13:02:26 51°28.287 3°3.352 307.7 0.5 217 22.6
2010-12-13 13:03:26 51°28.279 3°3.343 315.6 0.6 212 22.4
2010-12-13 13:04:26 51°28.27 3°3.335 321 0.7 212 22.3
2010-12-13 13:05:26 51°28.26 3°3.328 325.7 0.6 204 22.3
2010-12-13 13:06:26 51°28.251 3°3.321 328.6 0.6 204 22.5
2010-12-13 13:07:26 51°28.242 3°3.314 330.2 0.6 204 22.5
2010-12-13 13:08:26 51°28.232 3°3.308 332.5 0.6 204 22.4
2010-12-13 13:09:26 51°28.223 3°3.301 332.3 0.6 211 22.2
2010-12-13 13:10:26 51°28.215 3°3.293 332 0.5 206 21.9
2010-12-13 13:11:26 51°28.207 3°3.285 328.7 0.6 223 22.6
2010-12-13 13:12:26 51°28.199 3°3.276 326 0.5 218 22.2
2010-12-13 13:13:26 51°28.193 3°3.266 324.5 0.6 229 22.2
2010-12-13 13:14:26 51°28.186 3°3.255 322.3 0.6 227 22.1
2010-12-13 13:15:26 51°28.179 3°3.242 316.2 0.6 227 22.3
2010-12-13 13:16:26 51°28.173 3°3.23 314 0.6 230 22.7
2010-12-13 13:17:26 51°28.166 3°3.217 309.1 0.7 225 22.5
2010-12-13 13:18:26 51°28.158 3°3.204 305.9 0.6 225 22.2
2010-12-13 13:19:26 51°28.152 3°3.192 304.5 0.5 232 22
2010-12-13 13:20:26 51°28.145 3°3.179 302.5 0.7 231 22.2
2010-12-13 13:21:26 51°28.138 3°3.167 303.8 0.6 223 22.5
2010-12-13 13:22:26 51°28.131 3°3.157 309.3 0.5 215 22.1
2010-12-13 13:23:26 51°28.123 3°3.149 313.7 0.6 213 22.2
2010-12-13 13:24:26 51°28.122 3°3.124 301.5 2.4 281 22.2
2010-12-13 13:25:26 51°28.153 3°2.938 291.3 10.4 287 22.5
2010-12-13 13:26:26 51°28.206 3°2.622 285.9 13.5 281 23.1
2010-12-13 13:27:26 51°28.233 3°2.261 276.7 13.7 273 23.9
2010-12-13 13:28:26 51°28.208 3°1.896 256.8 14.1 252 23.7
2010-12-13 13:29:26 51°28.144 3°1.538 254.6 14.1 257 23.6
2010-12-13 13:30:26 51°28.084 3°1.178 255.6 13.9 257 22.7
2010-12-13 13:31:26 51°28.022 3°0.816 256.3 14.2 256 21.6
2010-12-13 13:32:26 51°27.96 3°0.452 257 14.1 257 21.7
2010-12-13 13:33:26 51°27.897 3°0.09 257 14 253 19.9
2010-12-13 13:34:26 51°27.836 2°59.73 257.3 14 251 19.2
2010-12-13 13:35:26 51°27.776 2°59.372 257.1 13.9 256 18.8
2010-12-13 13:36:26 51°27.718 2°59.014 257.7 14 255 18.2
2010-12-13 13:37:26 51°27.659 2°58.656 257.5 13.9 254 19.1
2010-12-13 13:38:26 51°27.6 2°58.296 257 14 256 21.5
2010-12-13 13:39:26 51°27.542 2°57.935 258.1 13.9 257 24.5
2010-12-13 13:40:26 51°27.478 2°57.578 255.5 13.9 255 25.6
2010-12-13 13:41:26 51°27.411 2°57.22 254.3 14 256 25.8
2010-12-13 13:42:26 51°27.345 2°56.861 255.6 14 254 22.5
2010-12-13 13:43:26 51°27.28 2°56.5 255.7 14.2 252 25.3
2010-12-13 13:44:26 51°27.215 2°56.139 255.1 14.1 253 28.6
2010-12-13 13:45:26 51°27.15 2°55.779 254.9 14.1 253 30.5
2010-12-13 13:46:26 51°27.086 2°55.419 255 14.1 255 29.2
2010-12-13 13:47:26 51°27.021 2°55.058 255.6 14 254 27.6
2010-12-13 13:48:26 51°26.953 2°54.698 255.6 14.1 249 28.1
2010-12-13 13:49:26 51°26.885 2°54.338 256.4 14.2 254 23.6
2010-12-13 13:50:26 51°26.821 2°53.974 255.3 14.1 256 27
2010-12-13 13:51:26 51°26.757 2°53.613 255.5 14 255 30.2
2010-12-13 13:52:26 51°26.693 2°53.256 255.3 13.9 255 31.2
2010-12-13 13:53:26 51°26.629 2°52.901 254.6 13.8 257 29.1
2010-12-13 13:54:26 51°26.562 2°52.548 255.2 13.9 253 27.7
2010-12-13 13:55:26 51°26.499 2°52.19 255.3 14 256 26.8
2010-12-13 13:56:26 51°26.436 2°51.832 255.7 13.9 253 26.9
2010-12-13 13:57:26 51°26.375 2°51.475 255.5 13.8 256 27.1
2010-12-13 13:58:26 51°26.314 2°51.119 256.7 13.7 256 24.5
2010-12-13 13:59:26 51°26.25 2°50.766 255.3 13.9 254 24.2
2010-12-13 14:00:26 51°26.19 2°50.413 255.7 13.8 256 23.4
2010-12-13 14:01:26 51°26.137 2°50.057 259.2 13.7 257 24.3
2010-12-13 14:02:26 51°26.091 2°49.698 260.1 13.7 259 23.6
2010-12-13 14:03:26 51°26.05 2°49.34 260.7 13.7 260 24
2010-12-13 14:04:26 51°26.01 2°49.004 260.4 10.6 259 24
2010-12-13 14:05:26 51°25.98 2°48.765 259.9 8.2 259 24.4
2010-12-13 14:06:26 51°25.966 2°48.594 276.4 4.7 274 24.3
2010-12-13 14:07:26 51°25.967 2°48.535 298.8 1 270 24.5
2010-12-13 14:08:26 51°25.964 2°48.517 304.9 0.6 242 24.4
2010-12-13 14:09:26 51°25.96 2°48.504 305.5 0.5 243 24
2010-12-13 14:10:26 51°25.956 2°48.493 306.9 0.7 230 24.9
2010-12-13 14:11:26 51°25.951 2°48.485 308.6 0.3 224 24.1
2010-12-13 14:12:26 51°25.948 2°48.479 309.5 0.5 232 24.7
2010-12-13 14:13:26 51°25.95 2°48.423 274.4 3.9 265 24.2
2010-12-13 14:14:26 51°25.904 2°48.281 236.9 9.2 236 24.1
2010-12-13 14:15:26 51°25.805 2°48.011 242.2 13.2 238 24.1
2010-12-13 14:16:26 51°25.706 2°47.688 245.9 13.7 245 25.1
2010-12-13 14:17:26 51°25.612 2°47.358 245.1 13.8 245 26.1
2010-12-13 14:18:26 51°25.517 2°47.03 246.5 13.6 245 25
2010-12-13 14:19:26 51°25.421 2°46.706 245.4 13.6 243 25.6
2010-12-13 14:20:26 51°25.325 2°46.381 245.6 13.5 245 24.3
2010-12-13 14:21:26 51°25.228 2°46.056 244.7 13.5 248 26.5
2010-12-13 14:22:26 51°25.131 2°45.73 245.2 13.7 245 26.6
2010-12-13 14:23:26 51°25.034 2°45.405 245.8 13.6 243 25.6
2010-12-13 14:24:26 51°24.936 2°45.08 246.9 13.4 241 25.9
2010-12-13 14:25:26 51°24.836 2°44.756 246.5 13.5 241 27
2010-12-13 14:26:26 51°24.739 2°44.429 245.2 13.7 245 27.8
2010-12-13 14:27:26 51°24.642 2°44.104 244.7 13.6 247 21.6
2010-12-13 14:28:26 51°24.544 2°43.779 245 13.5 245 24.6
2010-12-13 14:29:26 51°24.447 2°43.456 245.9 13.3 245 23.5
2010-12-13 14:30:26 51°24.349 2°43.133 244.9 13.5 246 26.3
2010-12-13 14:31:26 51°24.251 2°42.81 244 13.5 245 24.9
2010-12-13 14:32:26 51°24.154 2°42.487 244.2 13.6 245 28
2010-12-13 14:33:26 51°24.058 2°42.165 244.7 13.6 246 24.7
2010-12-13 14:34:26 51°23.962 2°41.842 245.5 13.5 243 28.9
2010-12-13 14:35:26 51°23.869 2°41.517 245.5 13.4 245 27
2010-12-13 14:36:26 51°23.775 2°41.193 245.6 13.3 244 29
2010-12-13 14:37:26 51°23.679 2°40.87 246 13.4 244 29.8
2010-12-13 14:38:26 51°23.586 2°40.544 245.6 13.4 242 31.3
2010-12-13 14:39:26 51°23.494 2°40.218 245.5 13.3 249 30.6
2010-12-13 14:40:26 51°23.391 2°39.901 240.2 13.3 243 30.1
2010-12-13 14:41:26 51°23.282 2°39.59 239.6 13.4 244 31.1
2010-12-13 14:42:26 51°23.172 2°39.284 239.1 13.3 242 30.6
2010-12-13 14:43:26 51°23.067 2°38.973 241.1 13.3 242 30.5
2010-12-13 14:44:26 51°22.961 2°38.661 240.2 13.3 243 31.3
2010-12-13 14:45:26 51°22.852 2°38.354 239.4 13.3 240 30.9
2010-12-13 14:46:26 51°22.746 2°38.041 240.7 13.4 243 31.6
2010-12-13 14:47:26 51°22.64 2°37.728 240.4 13.4 241 31.2
2010-12-13 14:48:26 51°22.534 2°37.415 240.7 13.3 242 30.5
2010-12-13 14:49:26 51°22.427 2°37.105 240.1 13.3 242 30.6
2010-12-13 14:50:26 51°22.317 2°36.795 240.1 13.3 243 30.8
2010-12-13 14:51:26 51°22.21 2°36.485 241.4 13.3 239 32.3
2010-12-13 14:52:26 51°22.103 2°36.175 240.2 13.3 240 32
2010-12-13 14:53:26 51°21.996 2°35.865 241 13.2 240 32.2
2010-12-13 14:54:26 51°21.892 2°35.558 240.7 13 240 31.8
2010-12-13 14:55:26 51°21.787 2°35.252 240.5 13.1 244 32.4
2010-12-13 14:56:26 51°21.683 2°34.949 239.5 13.1 241 32.2
2010-12-13 14:57:26 51°21.58 2°34.645 240.9 13 240 32.8
2010-12-13 14:58:26 51°21.476 2°34.341 238 13 243 33.4
2010-12-13 14:59:26 51°21.374 2°34.039 240.2 12.9 245 33.4
2010-12-13 15:00:26 51°21.274 2°33.735 241.1 12.9 240 34.6
2010-12-13 15:01:26 51°21.172 2°33.432 240.7 12.8 242 32.7
2010-12-13 15:02:26 51°21.072 2°33.129 241.1 13 240 32.2
2010-12-13 15:03:26 51°20.972 2°32.829 239.9 12.8 245 32.1
2010-12-13 15:04:26 51°20.874 2°32.529 241.9 12.6 240 31.9
2010-12-13 15:05:26 51°20.772 2°32.23 239.7 12.8 242 30.9
2010-12-13 15:06:26 51°20.67 2°31.932 241.3 12.6 237 26.8
2010-12-13 15:07:26 51°20.559 2°31.645 236.7 12.7 237 22.7
2010-12-13 15:08:26 51°20.443 2°31.365 235.8 12.6 237 20.9
2010-12-13 15:09:26 51°20.347 2°31.077 249.4 12.3 251 18.7
2010-12-13 15:10:26 51°20.273 2°30.779 246.2 11.9 254 15.9
2010-12-13 15:11:26 51°20.215 2°30.481 253.7 10.7 258 13.6
2010-12-13 15:12:26 51°20.172 2°30.274 239.2 6.8 233 14.6
2010-12-13 15:13:26 51°20.109 2°30.174 243 4.8 238 13.5
2010-12-13 15:14:26 51°20.072 2°30.063 242.9 4.8 239 15.2
2010-12-13 15:15:26 51°20.05 2°30.008 262.9 0.2 303 16.4
2010-12-13 15:16:26 51°20.056 2°30.019 300.3 0.7 59 16.2
2010-12-13 15:17:26 51°20.066 2°30.047 325.9 1.1 61 13.5
2010-12-13 15:18:26 51°20.074 2°30.082 339.6 1.4 68 15.9
2010-12-13 15:19:26 51°20.081 2°30.12 345.2 1.6 77 14.2
2010-12-13 15:20:26 51°20.087 2°30.162 352.5 2 51 14.2
2010-12-13 15:21:26 51°20.17 2°30.23 33 7.5 50 15.3
2010-12-13 15:22:26 51°20.162 2°30.444 106.2 10.7 105 12.1
2010-12-13 15:23:26 51°20.081 2°30.756 118.4 13.7 116 17.1
2010-12-13 15:24:26 51°19.95 2°31.055 129.7 13.6 127 23.6
2010-12-13 15:25:26 51°19.806 2°31.329 129.1 13.4 134 30.1
2010-12-13 15:26:26 51°19.665 2°31.604 129.7 13.4 126 32.6
2010-12-13 15:27:26 51°19.526 2°31.88 129 13.5 129 32.6
2010-12-13 15:28:26 51°19.39 2°32.161 127.7 13.2 127 32.4
2010-12-13 15:29:26 51°19.255 2°32.439 127.4 13.1 131 32.3
2010-12-13 15:30:26 51°19.123 2°32.723 127.8 13.4 128 32.1
2010-12-13 15:31:26 51°18.991 2°33.009 127.1 13.4 127 30.9
2010-12-13 15:32:26 51°18.857 2°33.294 127.5 13.5 128 28.2
2010-12-13 15:33:26 51°18.723 2°33.58 128.6 13.5 126 20.2
2010-12-13 15:34:26 51°18.588 2°33.87 126 13.5 130 19.5
2010-12-13 15:35:26 51°18.458 2°34.161 127.1 13.3 126 21.9
2010-12-13 15:36:26 51°18.327 2°34.446 127.1 13.2 127 28.5
2010-12-13 15:37:26 51°18.195 2°34.734 127.2 13.6 123 29.8
2010-12-13 15:38:26 51°18.063 2°35.023 127.3 13.5 127 25.3
2010-12-13 15:39:26 51°17.933 2°35.321 125.3 13.7 121 21.7
2010-12-13 15:40:26 51°17.796 2°35.612 128.6 13.8 127 13.8
2010-12-13 15:41:26 51°17.658 2°35.905 126.2 13.9 126 14.6
2010-12-13 15:42:26 51°17.52 2°36.201 128 13.8 129 19
2010-12-13 15:43:26 51°17.385 2°36.497 126.1 13.2 125 24.9
2010-12-13 15:44:26 51°17.256 2°36.786 128 13.4 125 28.8
2010-12-13 15:45:26 51°17.123 2°37.073 128.3 13.4 127 29.4
2010-12-13 15:46:26 51°16.932 2°37.183 175.8 12.5 177 30.4
2010-12-13 15:47:26 51°16.723 2°37.194 178.8 12.7 181 28.8
2010-12-13 15:48:26 51°16.579 2°37.135 220.1 5.5 228 28.7
2010-12-13 15:49:26 51°16.569 2°37.034 282.3 3.5 296 28.9
2010-12-13 15:50:26 51°16.602 2°36.954 281.8 3.3 294 29.2
2010-12-13 15:50:51 51°16.606 2°36.92 263.1 2.9 272 29.2
2010-12-13 15:51:51 51°16.602 2°36.84 263.2 3.2 277 28.8
2010-12-13 15:52:51 51°16.62 2°36.779 286.8 1.8 324 28.7
2010-12-13 15:53:51 51°16.636 2°36.784 292.8 1.1 36 28.8
2010-12-13 15:54:51 51°16.652 2°36.807 319.1 1.3 46 29.4
2010-12-13 15:55:51 51°16.667 2°36.837 342 1.5 52 29
2010-12-13 15:56:51 51°16.681 2°36.869 357.7 1.5 57 28.9
2010-12-13 15:57:51 51°16.695 2°36.904 4.5 1.6 60 28.6
2010-12-13 15:58:51 51°16.718 2°36.941 11.5 2.9 34 29
2010-12-13 15:59:51 51°16.761 2°37.032 77.7 4.9 79 29.3
2010-12-13 16:00:51 51°16.732 2°37.137 155.1 4 146 28.9
2010-12-13 16:01:51 51°16.622 2°37.154 184.4 9.5 182 28.7
2010-12-13 16:02:51 51°16.427 2°37.119 187.7 12.3 187 29.3
2010-12-13 16:03:51 51°16.221 2°37.084 186.4 12.4 186 26.9
2010-12-13 16:04:51 51°16.021 2°37.008 197.7 12.3 197 21.6
2010-12-13 16:05:51 51°15.824 2°36.921 195.3 12.4 198 17.1
2010-12-13 16:06:51 51°15.624 2°36.838 195.8 12.2 193 16
2010-12-13 16:07:51 51°15.425 2°36.759 196.1 12.3 193 15.3
2010-12-13 16:08:51 51°15.225 2°36.681 196.5 12.7 194 15.9
2010-12-13 16:09:51 51°15.026 2°36.608 195.6 12.5 191 17
2010-12-13 16:10:51 51°14.828 2°36.536 195.8 12.2 192 16.8
2010-12-13 16:11:51 51°14.626 2°36.488 185.3 12.5 180 14.7
2010-12-13 16:12:51 51°14.418 2°36.502 180.8 12.5 176 13.2
2010-12-13 16:13:51 51°14.209 2°36.532 175 12.4 175 13.9
2010-12-13 16:14:51 51°14.003 2°36.597 171.9 12.5 168 18.3
2010-12-13 16:15:51 51°13.797 2°36.673 171.5 12.5 165 23
2010-12-13 16:16:51 51°13.592 2°36.747 171.7 12.6 166 20.8
2010-12-13 16:17:51 51°13.386 2°36.818 172.1 12.3 167 10.5
2010-12-13 16:18:51 51°13.178 2°36.876 175.2 12.5 171 10
2010-12-13 16:19:51 51°12.967 2°36.923 176.6 12.9 171 10.4
2010-12-13 16:20:51 51°12.757 2°36.954 179.9 13.1 176 11.5
2010-12-13 16:21:51 51°12.546 2°36.973 182.7 12.6 179 12.1
2010-12-13 16:22:51 51°12.337 2°36.98 181.9 12.3 178 12.3
2010-12-13 16:23:51 51°12.128 2°36.984 182.9 12.3 178 12.9
2010-12-13 16:24:51 51°11.919 2°36.984 183.1 12.5 180 13.4
2010-12-13 16:25:51 51°11.71 2°36.987 181.4 12.7 178 14.7
2010-12-13 16:26:51 51°11.501 2°36.989 182.8 12.4 180 15.7
2010-12-13 16:27:51 51°11.293 2°36.992 182.1 12.6 182 15.9
2010-12-13 16:28:51 51°11.087 2°36.998 181.4 12.3 181 15.5
2010-12-13 16:29:51 51°10.881 2°37.002 182.8 12.4 178 13.5
2010-12-13 16:30:51 51°10.675 2°37.005 183.4 12.5 179 11.8
2010-12-13 16:31:51 51°10.472 2°37.034 170.5 12.6 162 14.5
2010-12-13 16:32:51 51°10.323 2°37.273 120.7 13.6 113 20.5
2010-12-13 16:33:51 51°10.309 2°37.641 84.7 14.3 83 20.7
2010-12-13 16:34:51 51°10.358 2°38.014 77.1 14.5 76 20.4
2010-12-13 16:35:51 51°10.408 2°38.389 78.1 14.5 78 19.6
2010-12-13 16:36:51 51°10.459 2°38.764 77.6 14.5 77 19.2
2010-12-13 16:37:51 51°10.51 2°39.138 78 14.6 78 18.7
2010-12-13 16:38:51 51°10.561 2°39.515 78.1 14.6 77 17.8
2010-12-13 16:39:51 51°10.614 2°39.891 77.7 14.6 75 17.3
2010-12-13 16:40:51 51°10.664 2°40.266 78.4 14.4 79 16.7
2010-12-13 16:41:51 51°10.714 2°40.641 78.6 14.5 78 15.9
2010-12-13 16:42:51 51°10.764 2°41.016 77.8 14.4 78 15.2
2010-12-13 16:43:51 51°10.813 2°41.39 78.5 14.4 78 15.3
2010-12-13 16:44:51 51°10.856 2°41.72 78.8 10.2 76 15.4
2010-12-13 16:45:51 51°10.926 2°41.908 39.3 7.3 44 15.5
2010-12-13 16:46:51 51°11.011 2°42.009 16.4 5.5 27 15.3
2010-12-13 16:47:51 51°11.072 2°42.039 344.2 2.5 31 15.5
2010-12-13 16:48:51 51°11.081 2°42.083 2.1 1.7 79 4.8
2010-12-13 16:49:51 51°11.087 2°42.129 17.1 1.7 75 15.1
2010-12-13 16:50:51 51°11.095 2°42.175 27.2 1.9 72 15.2
2010-12-13 16:51:51 51°11.115 2°42.225 11.1 3 36 15.2
2010-12-13 16:52:51 51°11.162 2°42.24 314.1 2.7 345 15
2010-12-13 16:53:51 51°11.183 2°42.204 256.3 1.6 261 15.1
2010-12-13 16:54:51 51°11.154 2°42.156 227.5 3.3 217 15.1
2010-12-13 16:55:51 51°11.121 2°42.117 233.4 1.6 217 15.4
2010-12-13 16:56:51 51°11.108 2°42.101 244 0.4 222 15.2
2010-12-13 16:57:51 51°11.107 2°42.103 250.5 0.3 70 15.4
2010-12-13 16:58:51 51°11.111 2°42.117 259.5 0.7 51 15.1
2010-12-13 16:59:51 51°11.12 2°42.133 273.5 0.9 46 15.2
2010-12-13 17:00:51 51°11.135 2°42.152 286.4 1.2 31 15.4
2010-12-13 17:01:51 51°11.153 2°42.168 281.9 1.3 28 15.2
2010-12-13 17:02:51 51°11.169 2°42.181 274.5 1.1 26 15
2010-12-13 17:03:51 51°11.183 2°42.194 267.2 0.9 35 15.3
2010-12-13 17:04:51 51°11.194 2°42.207 256.9 0.7 47 15.1
2010-12-13 17:05:51 51°11.2 2°42.221 244.5 0.6 77 15.2
2010-12-13 17:06:51 51°11.201 2°42.235 230.7 0.5 95 14.8
2010-12-13 17:07:51 51°11.195 2°42.256 213.5 1.2 120 15.1
2010-12-13 17:08:51 51°11.184 2°42.285 201.9 1.5 122 15.1
2010-12-13 17:09:51 51°11.164 2°42.312 199.3 2.6 172 15.2
2010-12-13 17:10:51 51°11.125 2°42.245 254.7 4.6 264 15.1
2010-12-13 17:11:51 51°11.109 2°42.115 241.4 5.5 242 15.1
2010-12-13 17:12:51 51°11.085 2°42.029 250.7 1.8 250 15.4
2010-12-13 17:13:51 51°11.091 2°42.001 271.3 0.9 317 15.3
2010-12-13 17:14:51 51°11.106 2°41.995 277.2 1 358 15.2
2010-12-13 17:15:51 51°11.12 2°42 265.9 0.7 35 15.4
2010-12-13 17:16:51 51°11.129 2°42.016 253.1 0.8 68 15.2
2010-12-13 17:17:51 51°11.132 2°42.037 237 0.8 98 15.2
2010-12-13 17:18:51 51°11.126 2°42.057 223.6 0.8 131 15.1
2010-12-13 17:19:51 51°11.115 2°42.073 223.5 1 146 15.1
2010-12-13 17:20:51 51°11.102 2°42.085 224.8 0.9 152 15.4
2010-12-13 17:21:51 51°11.088 2°42.097 225.1 0.9 140 15.4
2010-12-13 17:22:51 51°11.079 2°42.117 226 0.9 112 15.4
2010-12-13 17:23:51 51°11.075 2°42.143 227.3 1.3 105 15.4
2010-12-13 17:24:51 51°11.069 2°42.17 225.8 0.9 149 15.4
2010-12-13 17:25:51 51°11.029 2°42.198 161.8 4.4 138 15.6
2010-12-13 17:26:51 51°10.995 2°42.381 102.5 10.2 98 15.5
2010-12-13 17:27:51 51°10.978 2°42.714 88.3 14 87 15.5
2010-12-13 17:28:51 51°11.036 2°43.081 72.1 14.4 70 15.3
2010-12-13 17:29:51 51°11.107 2°43.444 73.1 14.3 73 15.4
2010-12-13 17:30:51 51°11.171 2°43.805 73.7 14.3 76 15.4
2010-12-13 17:31:51 51°11.239 2°44.165 70.9 14.2 70 15.2
2010-12-13 17:32:51 51°11.319 2°44.52 69.4 14.2 70 15.2
2010-12-13 17:33:51 51°11.399 2°44.878 69 14.4 72 15.4
2010-12-13 17:34:51 51°11.48 2°45.239 69.9 14.5 70 15.5
2010-12-13 17:35:51 51°11.56 2°45.601 70.3 14.4 70 15.5
2010-12-13 17:36:51 51°11.637 2°45.956 69.6 14.1 71 15.4
2010-12-13 17:37:51 51°11.715 2°46.311 70.7 14.2 71 15.2
2010-12-13 17:38:51 51°11.793 2°46.669 70 14.4 71 15
2010-12-13 17:39:51 51°11.871 2°47.027 69.8 14.3 71 15
2010-12-13 17:40:51 51°11.956 2°47.379 63.9 14.2 66 14.6
2010-12-13 17:41:51 51°12.071 2°47.71 59.9 14.3 60 14.4
2010-12-13 17:42:51 51°12.186 2°48.042 59.9 14.3 61 14.9
2010-12-13 17:43:51 51°12.301 2°48.374 59.8 14.3 61 14.7
2010-12-13 17:44:51 51°12.415 2°48.707 59.7 14.4 61 14.5
2010-12-13 17:45:51 51°12.531 2°49.042 59.9 14.4 60 14.1
2010-12-13 17:46:51 51°12.646 2°49.381 60 14.5 61 14
2010-12-13 17:47:51 51°12.761 2°49.719 60.3 14.5 62 13.9
2010-12-13 17:48:51 51°12.876 2°50.056 60.3 14.6 61 14.1
2010-12-13 17:49:51 51°12.991 2°50.395 60.3 14.5 62 13.9
2010-12-13 17:50:51 51°13.106 2°50.734 60.5 14.6 60 13.7
2010-12-13 17:51:51 51°13.23 2°51.065 56.7 14.4 57 13.5
2010-12-13 17:52:51 51°13.356 2°51.39 57.3 14.4 58 13.4
2010-12-13 17:53:51 51°13.482 2°51.714 56.5 14.3 58 13.2
2010-12-13 17:54:51 51°13.607 2°52.038 57.4 14.3 58 13.2
2010-12-13 17:55:51 51°13.731 2°52.359 57.9 14.3 59 13.1
2010-12-13 17:56:51 51°13.85 2°52.664 57.5 13.1 57 12.8
2010-12-13 17:57:51 51°13.956 2°52.938 56.7 10.3 57 12.6
2010-12-13 17:58:51 51°14.035 2°53.112 45.2 6.5 49 12.7
2010-12-13 17:59:51 51°14.093 2°53.216 35.5 4.4 46 12.6
2010-12-13 18:00:51 51°14.136 2°53.29 37.1 3.5 51 12.6
2010-12-13 18:01:51 51°14.169 2°53.355 34.7 2.9 55 12.6
2010-12-13 18:02:51 51°14.195 2°53.409 29 2.4 56 13
2010-12-13 18:03:51 51°14.218 2°53.46 32.4 2.4 57 12.5
2010-12-13 18:04:51 51°14.248 2°53.535 59.1 4.5 60 12.4
2010-12-13 18:05:51 51°14.306 2°53.666 46.1 7.5 50 12.3
2010-12-13 18:06:51 51°14.392 2°53.828 48.4 8.6 50 12.4
2010-12-13 18:07:51 51°14.478 2°53.983 36.7 5.7 44 12.7
2010-12-13 18:08:51 51°14.508 2°54.041 22.5 1.8 68 12.5
2010-12-13 18:09:54 51°14.514 2°54.085 47.9 1.6 81 -999
2010-12-13 18:10:53 51°14.519 2°54.12 64.2 1.1 72 5
2010-12-13 18:11:51 51°14.525 2°54.152 78 2 72 12.8
2010-12-13 18:12:51 51°14.543 2°54.238 69.4 5.1 67 12.6
2010-12-13 18:13:51 51°14.593 2°54.391 58.5 6.7 59 12.7
2010-12-13 18:14:51 51°14.631 2°54.556 78.3 6.4 76 12.9
2010-12-13 18:15:51 51°14.633 2°54.721 98.9 6.5 98 14.7
2010-12-13 18:16:51 51°14.592 2°54.891 127.3 7.1 120 14.4
2010-12-13 18:17:51 51°14.511 2°55.009 155 6.8 151 14.1
2010-12-13 18:18:51 51°14.418 2°55.083 149 5.8 149 12.9
2010-12-13 18:19:51 51°14.336 2°55.168 145.5 6.2 146 4.9
2010-12-13 18:20:51 51°14.235 2°55.281 140.4 8.2 141 11.8
2010-12-13 18:21:52 51°14.118 2°55.41 149.6 8.5 152 -999
2010-12-13 18:22:54 51°13.982 2°55.51 154.7 8.8 157 13.3
2010-12-13 18:23:54 51°13.868 2°55.593 154 6.2 153 13.1
2010-12-13 18:24:52 51°13.791 2°55.661 148.5 5.1 148 12.6
2010-12-13 18:25:51 51°13.737 2°55.74 127.5 4.2 129 13.4
2010-12-13 18:26:51 51°13.699 2°55.826 122.5 3.8 124 12.8
2010-12-13 18:27:51 51°13.673 2°55.916 106.8 3.5 107 11.2
2010-12-13 18:28:51 51°13.664 2°55.958 122.5 0.2 124 10
2010-12-13 18:29:54 51°13.662 2°55.961 121.2 0.1 51 10.1